Time;durP1;ratioP1;P1;durP2;ratioP2;P2;SDS_P1;SDS_P2;PMS_P1;PMS_P2;Temp;Humidity;BMP_temperature;BMP_pressure;BME280_temperature;BME280_humidity;BME280_pressure;Samples;Min_cycle;Max_cycle;Signal;HPM_P1;HPM_P2
2024/01/20 00:01:56;;;;;;;13.65;8.70;;;0.70;1.00;;;;;;5104497;28;20715;-75
2024/01/20 00:04:23;;;;;;;12.10;7.60;;;0.70;1.00;;;;;;5107202;28;20239;-75
2024/01/20 00:06:49;;;;;;;11.90;8.48;;;0.80;1.00;;;;;;5107345;28;20267;-77
2024/01/20 00:09:17;;;;;;;11.63;8.30;;;0.70;1.00;;;;;;5107305;28;20345;-76
2024/01/20 00:11:44;;;;;;;10.20;7.50;;;0.70;1.00;;;;;;5110293;28;20239;-78
2024/01/20 00:14:13;;;;;;;14.48;8.73;;;0.70;1.00;;;;;;5109385;28;20323;-76
2024/01/20 00:16:39;;;;;;;11.23;8.68;;;0.70;1.00;;;;;;5109599;28;20661;-77
2024/01/20 00:19:06;;;;;;;12.52;8.25;;;0.70;1.00;;;;;;5111559;27;20385;-78
2024/01/20 00:21:33;;;;;;;11.85;6.95;;;0.70;1.00;;;;;;5117133;27;20675;-78
2024/01/20 00:24:00;;;;;;;13.60;8.10;;;0.70;1.00;;;;;;5115435;28;20236;-77
2024/01/20 00:26:27;;;;;;;11.45;7.43;;;0.70;1.00;;;;;;5113388;28;20312;-78
2024/01/20 00:28:54;;;;;;;12.68;7.30;;;0.70;1.00;;;;;;5113505;28;20330;-77
2024/01/20 00:31:21;;;;;;;12.35;7.35;;;0.70;1.00;;;;;;5115784;28;20223;-77
2024/01/20 00:33:48;;;;;;;11.45;7.57;;;0.70;1.00;;;;;;5114766;28;20944;-79
2024/01/20 00:36:16;;;;;;;13.30;8.60;;;0.70;1.00;;;;;;5116655;28;20396;-77
2024/01/20 00:38:43;;;;;;;12.05;7.03;;;0.70;1.00;;;;;;5112187;28;20308;-78
2024/01/20 00:41:10;;;;;;;10.43;7.53;;;0.70;1.00;;;;;;5113864;28;20236;-79
2024/01/20 00:43:37;;;;;;;11.00;7.63;;;0.80;1.00;;;;;;5116827;28;20346;-78
2024/01/20 00:46:04;;;;;;;12.60;8.32;;;0.80;1.00;;;;;;5111970;28;20262;-75
2024/01/20 00:48:32;;;;;;;12.20;8.00;;;0.80;1.00;;;;;;5113606;28;20312;-76
2024/01/20 00:50:59;;;;;;;8.75;6.82;;;0.80;1.00;;;;;;5108560;28;20683;-77
2024/01/20 00:53:26;;;;;;;10.40;7.40;;;0.80;1.00;;;;;;5113003;28;20278;-78
2024/01/20 00:55:53;;;;;;;10.27;7.40;;;0.80;1.00;;;;;;5116367;27;21057;-77
2024/01/20 00:58:20;;;;;;;10.23;7.00;;;0.80;1.00;;;;;;5114826;28;20259;-78
2024/01/20 01:00:47;;;;;;;13.73;8.23;;;0.90;1.00;;;;;;5111618;28;20326;-77
2024/01/20 01:03:14;;;;;;;10.05;7.95;;;0.90;1.00;;;;;;5114203;28;20276;-78
2024/01/20 01:05:43;;;;;;;12.20;9.32;;;0.90;1.00;;;;;;5114333;28;20239;-75
2024/01/20 01:08:10;;;;;;;9.55;7.20;;;1.00;1.00;;;;;;5114176;28;20717;-79
2024/01/20 01:10:37;;;;;;;18.33;9.18;;;0.90;1.00;;;;;;5114512;28;20259;-77
2024/01/20 01:13:04;;;;;;;11.23;7.43;;;0.80;1.00;;;;;;5113035;27;20289;-77
2024/01/20 01:15:32;;;;;;;12.63;8.63;;;0.80;1.00;;;;;;5111591;28;20247;-78
2024/01/20 01:17:59;;;;;;;13.75;7.90;;;0.80;1.00;;;;;;5110599;28;20238;-78
2024/01/20 01:20:26;;;;;;;13.20;7.90;;;0.70;1.00;;;;;;5112866;28;21047;-80
2024/01/20 01:22:54;;;;;;;11.93;7.50;;;0.70;1.00;;;;;;5111482;28;20273;-78
2024/01/20 01:25:22;;;;;;;11.23;7.53;;;0.60;1.00;;;;;;5111220;28;20241;-78
2024/01/20 01:27:49;;;;;;;13.48;8.48;;;0.70;1.00;;;;;;5111612;28;20236;-79
2024/01/20 01:30:16;;;;;;;12.02;8.05;;;0.70;1.00;;;;;;5109800;28;20672;-77
2024/01/20 01:32:43;;;;;;;12.93;8.93;;;0.70;1.00;;;;;;5112136;28;20720;-79
2024/01/20 01:35:10;;;;;;;10.98;7.88;;;0.70;1.00;;;;;;5109984;27;20344;-78
2024/01/20 01:37:37;;;;;;;15.90;8.80;;;0.70;1.00;;;;;;5109738;28;20959;-75
2024/01/20 01:40:06;;;;;;;13.68;8.63;;;0.70;1.00;;;;;;5111531;28;20292;-77
2024/01/20 01:42:33;;;;;;;13.98;9.00;;;0.70;1.00;;;;;;5109113;28;20231;-79
2024/01/20 01:45:00;;;;;;;17.90;9.13;;;0.70;1.00;;;;;;5111632;28;20243;-76
2024/01/20 01:47:28;;;;;;;12.20;8.77;;;0.60;1.00;;;;;;5110974;28;20227;-78
2024/01/20 01:49:55;;;;;;;14.52;8.05;;;0.60;1.00;;;;;;5111068;27;20266;-75
2024/01/20 01:52:23;;;;;;;14.73;8.70;;;0.60;1.00;;;;;;5111513;27;20765;-78
2024/01/20 01:54:50;;;;;;;13.02;8.90;;;0.60;1.00;;;;;;5108789;28;20746;-79
2024/01/20 01:57:19;;;;;;;15.15;8.60;;;0.60;1.00;;;;;;5112692;27;20741;-77
2024/01/20 01:59:46;;;;;;;12.18;8.65;;;0.60;1.00;;;;;;5112613;28;21135;-78
2024/01/20 02:02:13;;;;;;;9.45;8.27;;;0.60;1.00;;;;;;5109361;28;20256;-78
2024/01/20 02:04:40;;;;;;;12.10;8.25;;;0.60;1.00;;;;;;5108468;28;20238;-76
2024/01/20 02:07:08;;;;;;;17.02;9.70;;;0.60;1.00;;;;;;5108615;28;20236;-77
2024/01/20 02:09:35;;;;;;;16.35;9.40;;;0.60;1.00;;;;;;5113063;28;20247;-77
2024/01/20 02:12:04;;;;;;;13.00;8.60;;;0.60;1.00;;;;;;5111608;28;21027;-78
2024/01/20 02:14:32;;;;;;;17.50;9.75;;;0.60;1.00;;;;;;5115007;28;20841;-78
2024/01/20 02:17:00;;;;;;;13.90;9.18;;;0.60;1.00;;;;;;5108734;28;20733;-79
2024/01/20 02:19:27;;;;;;;14.40;9.52;;;0.60;1.00;;;;;;5112098;28;20304;-78
2024/01/20 02:21:54;;;;;;;13.10;8.85;;;0.60;1.00;;;;;;5112340;27;20232;-78
2024/01/20 02:24:23;;;;;;;12.75;9.73;;;0.60;1.00;;;;;;5111619;28;20262;-78
2024/01/20 02:26:49;;;;;;;11.00;8.85;;;0.60;1.00;;;;;;5108807;28;20260;-77
2024/01/20 02:29:16;;;;;;;11.63;8.77;;;0.60;1.00;;;;;;5111586;28;20270;-79
2024/01/20 02:31:43;;;;;;;10.98;9.85;;;0.60;1.00;;;;;;5112601;28;20889;-78
2024/01/20 02:34:10;;;;;;;11.02;8.82;;;0.60;1.00;;;;;;5112115;27;20283;-79
2024/01/20 02:36:37;;;;;;;14.35;8.52;;;0.60;1.00;;;;;;5111358;27;20304;-78
2024/01/20 02:39:04;;;;;;;13.70;10.40;;;0.70;1.00;;;;;;5110638;28;20271;-74
2024/01/20 02:41:32;;;;;;;12.55;9.15;;;0.70;1.00;;;;;;5110651;27;20231;-79
2024/01/20 02:43:59;;;;;;;14.88;9.82;;;0.80;1.00;;;;;;5110830;28;20254;-79
2024/01/20 02:46:26;;;;;;;13.07;10.38;;;0.80;1.00;;;;;;5112255;27;20227;-78
2024/01/20 02:48:53;;;;;;;12.90;9.10;;;0.80;1.00;;;;;;5110757;27;20239;-77
2024/01/20 02:51:20;;;;;;;13.50;8.88;;;0.80;1.00;;;;;;5110939;28;20239;-76
2024/01/20 02:53:47;;;;;;;16.23;10.35;;;0.90;1.00;;;;;;5108834;28;20295;-79
2024/01/20 02:56:14;;;;;;;12.05;9.93;;;0.90;1.00;;;;;;5110167;28;20219;-78
2024/01/20 02:58:42;;;;;;;10.30;9.15;;;1.00;1.00;;;;;;5111260;28;20274;-78
2024/01/20 03:01:09;;;;;;;13.15;9.82;;;1.00;1.00;;;;;;5107715;28;20255;-77
2024/01/20 03:03:36;;;;;;;13.30;9.77;;;1.00;1.00;;;;;;5110097;28;20247;-76
2024/01/20 03:06:03;;;;;;;12.13;8.95;;;1.00;1.00;;;;;;5111232;28;20744;-79
2024/01/20 03:08:30;;;;;;;14.00;10.45;;;1.00;1.00;;;;;;5112506;27;20296;-79
2024/01/20 03:10:57;;;;;;;10.57;9.15;;;1.00;1.00;;;;;;5109800;28;20259;-77
2024/01/20 03:13:24;;;;;;;16.75;10.52;;;1.10;1.00;;;;;;5109709;28;20267;-77
2024/01/20 03:15:52;;;;;;;15.75;10.77;;;1.10;1.00;;;;;;5111099;28;20236;-79
2024/01/20 03:18:19;;;;;;;13.02;9.00;;;1.10;1.00;;;;;;5109969;28;20231;-78
2024/01/20 03:20:46;;;;;;;12.60;9.65;;;1.10;1.00;;;;;;5108942;28;20223;-77
2024/01/20 03:23:13;;;;;;;15.90;11.38;;;1.10;1.00;;;;;;5107922;28;20314;-77
2024/01/20 03:25:40;;;;;;;14.13;10.20;;;1.10;1.00;;;;;;5109863;28;20322;-78
2024/01/20 03:28:08;;;;;;;12.80;10.20;;;1.10;1.00;;;;;;5110366;28;20413;-78
2024/01/20 03:30:35;;;;;;;13.70;10.35;;;1.10;1.00;;;;;;5111435;28;20231;-77
2024/01/20 03:33:03;;;;;;;15.73;10.27;;;1.10;1.00;;;;;;5110287;28;20239;-77
2024/01/20 03:35:30;;;;;;;15.60;10.98;;;1.10;1.00;;;;;;5110641;27;20239;-77
2024/01/20 03:37:57;;;;;;;12.80;9.85;;;1.10;1.00;;;;;;5109063;28;20928;-76
2024/01/20 03:40:24;;;;;;;18.15;11.25;;;1.10;1.00;;;;;;5110041;28;21156;-76
2024/01/20 03:42:51;;;;;;;14.32;10.68;;;1.10;1.00;;;;;;5107219;28;20318;-79
2024/01/20 03:45:17;;;;;;;13.02;10.50;;;1.10;1.00;;;;;;5106805;27;20240;-76
2024/01/20 03:47:44;;;;;;;14.40;9.60;;;1.10;1.00;;;;;;5108834;28;20231;-76
2024/01/20 03:50:13;;;;;;;12.85;9.45;;;1.10;1.00;;;;;;5109833;28;20699;-76
2024/01/20 03:52:40;;;;;;;14.88;9.95;;;1.10;1.00;;;;;;5110511;28;20301;-76
2024/01/20 03:55:07;;;;;;;14.60;10.40;;;1.10;1.00;;;;;;5112658;28;20243;-77
2024/01/20 03:57:34;;;;;;;14.73;10.85;;;1.10;1.00;;;;;;5113609;28;20235;-78
2024/01/20 04:00:01;;;;;;;13.73;10.40;;;1.10;1.00;;;;;;5112521;28;20235;-77
2024/01/20 04:02:29;;;;;;;13.93;11.18;;;1.10;1.00;;;;;;5110930;27;20235;-74
2024/01/20 04:04:56;;;;;;;16.52;11.45;;;1.10;1.00;;;;;;5112679;28;20358;-77
2024/01/20 04:07:24;;;;;;;15.77;11.18;;;1.20;1.00;;;;;;5109785;27;20277;-74
2024/01/20 04:09:51;;;;;;;13.02;10.80;;;1.30;1.00;;;;;;5115229;28;20255;-77
2024/01/20 04:12:18;;;;;;;16.25;11.05;;;1.20;1.00;;;;;;5108141;28;20718;-76
2024/01/20 04:14:45;;;;;;;16.65;10.45;;;1.40;1.00;;;;;;5105757;28;20270;-78
2024/01/20 04:17:12;;;;;;;15.52;11.10;;;1.40;1.00;;;;;;5110013;28;20231;-76
2024/01/20 04:19:39;;;;;;;15.45;10.82;;;1.40;1.00;;;;;;5114294;28;20312;-76
2024/01/20 04:22:05;;;;;;;15.45;10.30;;;1.40;1.00;;;;;;5112154;28;20282;-78
2024/01/20 04:24:34;;;;;;;17.08;11.55;;;1.40;1.00;;;;;;5111201;28;20235;-76
2024/01/20 04:27:01;;;;;;;17.23;10.65;;;1.30;1.00;;;;;;5112092;28;20235;-76
2024/01/20 04:29:28;;;;;;;15.90;10.63;;;1.30;1.00;;;;;;5112433;28;20236;-77
2024/01/20 04:31:54;;;;;;;15.30;11.07;;;1.30;1.00;;;;;;5112274;28;20293;-77
2024/01/20 04:34:21;;;;;;;12.65;10.77;;;1.20;1.00;;;;;;5112149;28;20421;-75
2024/01/20 04:36:48;;;;;;;14.48;11.23;;;1.20;1.00;;;;;;5110690;28;20258;-78
2024/01/20 04:39:15;;;;;;;12.70;10.52;;;1.10;1.00;;;;;;5107725;27;20236;-75
2024/01/20 04:41:44;;;;;;;12.98;11.05;;;1.10;1.00;;;;;;5110688;28;20955;-71
2024/01/20 04:44:11;;;;;;;14.27;11.10;;;1.10;1.00;;;;;;5094474;27;20235;-71
2024/01/20 04:46:38;;;;;;;14.82;11.63;;;1.00;1.00;;;;;;5090761;27;20234;-72
2024/01/20 04:49:04;;;;;;;16.17;11.20;;;1.00;1.00;;;;;;5109625;27;20322;-72
2024/01/20 04:51:31;;;;;;;13.90;11.23;;;1.00;1.00;;;;;;5109073;28;20929;-73
2024/01/20 04:53:58;;;;;;;16.63;10.95;;;1.00;1.00;;;;;;5106108;28;20259;-73
2024/01/20 04:56:25;;;;;;;12.65;10.85;;;1.00;1.00;;;;;;5107953;27;20349;-72
2024/01/20 04:58:55;;;;;;;12.27;10.55;;;1.00;1.00;;;;;;5109032;28;20275;-71
2024/01/20 05:01:22;;;;;;;14.73;11.13;;;0.90;1.00;;;;;;5109854;28;20274;-73
2024/01/20 05:03:49;;;;;;;15.35;11.50;;;0.90;1.00;;;;;;5099721;28;20334;-72
2024/01/20 05:06:16;;;;;;;15.23;11.75;;;0.90;1.00;;;;;;5104558;27;20246;-74
2024/01/20 05:08:43;;;;;;;16.92;11.18;;;0.90;1.00;;;;;;5110633;27;20266;-75
2024/01/20 05:11:10;;;;;;;12.10;10.05;;;0.90;1.00;;;;;;5107739;27;20270;-73
2024/01/20 05:13:36;;;;;;;17.25;11.70;;;0.90;1.00;;;;;;5110775;27;20663;-72
2024/01/20 05:16:05;;;;;;;12.63;11.15;;;0.90;1.00;;;;;;5106963;28;20243;-72
2024/01/20 05:18:32;;;;;;;14.27;10.15;;;0.90;1.00;;;;;;5109453;27;20337;-73
2024/01/20 05:20:59;;;;;;;14.90;11.15;;;0.80;1.00;;;;;;5108784;27;20235;-71
2024/01/20 05:23:26;;;;;;;13.00;10.95;;;0.80;1.00;;;;;;5109370;27;20341;-69
2024/01/20 05:25:53;;;;;;;17.08;11.60;;;0.90;1.00;;;;;;5111510;27;20240;-73
2024/01/20 05:28:20;;;;;;;15.50;11.48;;;1.00;1.00;;;;;;5109422;27;20324;-73
2024/01/20 05:30:49;;;;;;;14.90;10.77;;;1.10;1.00;;;;;;5108147;27;20249;-71
2024/01/20 05:33:17;;;;;;;15.23;10.95;;;1.10;1.00;;;;;;5110922;27;20241;-75
2024/01/20 05:35:44;;;;;;;16.65;12.18;;;1.10;1.00;;;;;;5110707;27;20323;-71
2024/01/20 05:38:11;;;;;;;15.88;12.68;;;1.10;1.00;;;;;;5110063;27;21118;-76
2024/01/20 05:40:38;;;;;;;13.60;11.93;;;1.10;1.00;;;;;;5107298;27;20250;-72
2024/01/20 05:43:06;;;;;;;16.30;13.52;;;1.10;1.00;;;;;;5109412;27;20339;-72
2024/01/20 05:45:33;;;;;;;16.48;11.23;;;1.10;1.00;;;;;;5111637;27;20346;-73
2024/01/20 05:47:59;;;;;;;17.33;11.93;;;1.10;1.00;;;;;;5109250;27;20289;-71
2024/01/20 05:50:29;;;;;;;16.05;11.55;;;1.10;1.00;;;;;;5110836;27;20235;-74
2024/01/20 05:52:56;;;;;;;14.43;10.98;;;1.20;1.00;;;;;;5107748;27;21871;-73
2024/01/20 05:55:24;;;;;;;13.95;11.25;;;1.20;1.00;;;;;;5108462;27;20591;-72
2024/01/20 05:57:50;;;;;;;23.98;11.93;;;1.20;1.00;;;;;;5106954;27;20256;-72
2024/01/20 06:00:20;;;;;;;16.15;11.35;;;1.30;1.00;;;;;;5110367;27;20247;-72
2024/01/20 06:02:47;;;;;;;14.93;11.25;;;1.40;1.00;;;;;;5107410;27;20614;-72
2024/01/20 06:05:14;;;;;;;13.23;11.82;;;1.40;1.00;;;;;;5108769;28;20301;-73
2024/01/20 06:07:44;;;;;;;15.25;11.88;;;1.40;1.00;;;;;;5111564;28;20239;-73
2024/01/20 06:10:11;;;;;;;17.45;12.35;;;1.30;1.00;;;;;;5107772;27;20263;-72
2024/01/20 06:12:38;;;;;;;13.90;9.35;;;1.30;1.00;;;;;;5107047;28;20238;-72
2024/01/20 06:15:06;;;;;;;12.68;11.15;;;1.30;1.00;;;;;;5109313;28;20330;-76
2024/01/20 06:17:33;;;;;;;13.23;10.90;;;1.30;1.00;;;;;;5105611;28;20297;-72
2024/01/20 06:19:59;;;;;;;13.45;10.57;;;1.30;1.00;;;;;;5107768;28;20326;-72
2024/01/20 06:22:26;;;;;;;12.85;10.20;;;1.20;1.00;;;;;;5106378;28;20362;-74
2024/01/20 06:24:55;;;;;;;16.05;10.45;;;1.20;1.00;;;;;;5107963;28;20239;-74
2024/01/20 06:27:21;;;;;;;15.95;11.18;;;1.10;1.00;;;;;;5107853;28;20320;-72
2024/01/20 06:29:48;;;;;;;16.35;12.73;;;1.00;1.00;;;;;;5108714;28;20382;-72
2024/01/20 06:32:15;;;;;;;13.30;11.43;;;1.00;1.00;;;;;;5108463;27;20699;-73
2024/01/20 06:34:43;;;;;;;17.35;10.70;;;1.00;1.00;;;;;;5107103;28;21057;-71
2024/01/20 06:37:10;;;;;;;14.27;10.80;;;0.90;1.00;;;;;;5105658;28;20302;-75
2024/01/20 06:39:39;;;;;;;19.70;11.52;;;0.90;1.00;;;;;;5108298;27;20235;-72
2024/01/20 06:42:12;;;;;;;18.35;12.77;;;0.90;1.00;;;;;;5104621;28;20243;-73
2024/01/20 06:44:42;;;;;;;16.75;11.38;;;0.90;1.00;;;;;;5107824;28;20231;-74
2024/01/20 06:47:09;;;;;;;15.27;11.35;;;0.90;1.00;;;;;;5109399;28;20300;-72
2024/01/20 06:49:39;;;;;;;20.92;11.38;;;0.80;1.00;;;;;;5108096;28;20277;-74
2024/01/20 06:52:06;;;;;;;16.05;11.60;;;0.80;1.00;;;;;;5108796;28;20231;-72
2024/01/20 06:54:33;;;;;;;15.60;11.82;;;0.90;1.00;;;;;;5109885;28;20235;-73
2024/01/20 06:57:01;;;;;;;14.85;10.95;;;0.90;1.00;;;;;;5106480;28;20410;-74
2024/01/20 06:59:29;;;;;;;18.02;12.05;;;1.00;1.00;;;;;;5108603;28;21027;-72
2024/01/20 07:01:55;;;;;;;16.05;11.88;;;0.90;1.00;;;;;;5106066;28;20235;-71
2024/01/20 07:04:22;;;;;;;13.50;10.70;;;0.90;1.00;;;;;;5109019;28;20235;-73
2024/01/20 07:06:49;;;;;;;14.07;10.68;;;0.90;1.00;;;;;;5107038;28;20494;-72
2024/01/20 07:09:16;;;;;;;17.75;11.95;;;0.90;1.00;;;;;;5106477;28;20326;-72
2024/01/20 07:11:45;;;;;;;15.95;12.73;;;0.90;1.00;;;;;;5100277;28;20239;-72
2024/01/20 07:14:12;;;;;;;19.20;12.80;;;0.90;1.00;;;;;;5106268;28;20242;-73
2024/01/20 07:16:40;;;;;;;15.88;11.85;;;1.00;1.00;;;;;;5109535;28;21190;-72
2024/01/20 07:19:07;;;;;;;17.77;12.18;;;1.00;1.00;;;;;;5106817;28;20312;-72
2024/01/20 07:21:35;;;;;;;16.48;12.20;;;1.00;1.00;;;;;;5109872;27;20231;-77
2024/01/20 07:24:01;;;;;;;14.18;11.23;;;1.00;1.00;;;;;;5096091;27;20285;-71
2024/01/20 07:26:28;;;;;;;15.85;11.75;;;1.00;1.00;;;;;;5088156;28;20350;-70
2024/01/20 07:28:55;;;;;;;13.70;11.32;;;1.10;1.00;;;;;;5089586;28;20940;-71
2024/01/20 07:31:23;;;;;;;16.20;11.65;;;1.30;1.00;;;;;;5087315;28;20247;-74
2024/01/20 07:33:51;;;;;;;16.20;11.80;;;1.40;1.00;;;;;;5091780;28;21142;-72
2024/01/20 07:36:18;;;;;;;16.80;11.70;;;1.50;1.00;;;;;;5091471;28;21213;-77
2024/01/20 07:38:45;;;;;;;15.15;11.57;;;1.50;1.00;;;;;;5093337;28;20239;-73
2024/01/20 07:41:12;;;;;;;13.70;11.65;;;1.50;1.00;;;;;;5083569;28;20236;-78
2024/01/20 07:43:39;;;;;;;16.27;11.68;;;1.60;1.00;;;;;;5090136;28;20244;-72
2024/01/20 07:46:08;;;;;;;14.38;11.07;;;1.70;1.00;;;;;;5086154;28;20318;-72
2024/01/20 07:48:35;;;;;;;18.48;11.65;;;1.60;1.00;;;;;;5092272;28;20322;-73
2024/01/20 07:51:03;;;;;;;17.00;12.77;;;1.70;1.00;;;;;;5085601;28;20255;-70
2024/01/20 07:53:31;;;;;;;16.05;11.48;;;1.80;1.00;;;;;;5090299;28;20655;-72
2024/01/20 07:55:57;;;;;;;15.43;12.52;;;1.80;1.00;;;;;;5091425;28;20235;-73
2024/01/20 07:58:24;;;;;;;13.75;11.63;;;1.90;1.00;;;;;;5092148;28;20263;-72
2024/01/20 08:00:52;;;;;;;14.07;11.02;;;1.90;1.00;;;;;;5083198;28;20282;-72
2024/01/20 08:03:19;;;;;;;16.75;12.10;;;1.90;1.00;;;;;;5086660;28;22411;-70
2024/01/20 08:05:46;;;;;;;14.32;11.90;;;1.90;1.00;;;;;;5090962;28;20290;-70
2024/01/20 08:08:14;;;;;;;14.15;11.82;;;1.90;1.00;;;;;;5092532;28;20564;-71
2024/01/20 08:10:41;;;;;;;13.50;11.40;;;2.00;1.00;;;;;;5088571;28;20320;-71
2024/01/20 08:13:08;;;;;;;15.30;10.95;;;1.90;1.00;;;;;;5087657;28;20326;-75
2024/01/20 08:15:35;;;;;;;15.48;12.23;;;1.90;1.00;;;;;;5089407;28;20320;-69
2024/01/20 08:18:02;;;;;;;16.05;11.43;;;2.00;1.00;;;;;;5091680;28;20808;-70
2024/01/20 08:20:33;;;;;;;15.10;11.80;;;2.00;1.00;;;;;;5075126;28;20295;-75
2024/01/20 08:23:00;;;;;;;15.43;12.07;;;2.00;1.00;;;;;;5091368;28;20735;-75
2024/01/20 08:25:28;;;;;;;14.50;13.00;;;2.10;1.00;;;;;;5110999;27;20892;-72
2024/01/20 08:27:55;;;;;;;18.85;12.63;;;2.10;1.00;;;;;;5106651;27;20322;-72
2024/01/20 08:30:23;;;;;;;14.45;11.30;;;2.10;1.00;;;;;;5110154;27;20698;-72
2024/01/20 08:32:50;;;;;;;16.02;12.00;;;2.10;1.00;;;;;;5112875;28;20327;-77
2024/01/20 08:35:18;;;;;;;12.82;11.50;;;2.10;1.00;;;;;;5114128;27;20772;-75
2024/01/20 08:37:45;;;;;;;13.70;12.30;;;2.00;1.00;;;;;;5113751;27;21108;-77
2024/01/20 08:40:12;;;;;;;14.98;12.05;;;2.10;1.00;;;;;;5111567;27;20236;-77
2024/01/20 08:42:40;;;;;;;14.85;10.75;;;2.10;1.00;;;;;;5117868;27;20330;-76
2024/01/20 08:45:08;;;;;;;15.52;9.98;;;2.20;1.00;;;;;;5112046;27;20248;-76
2024/01/20 08:47:35;;;;;;;13.50;11.68;;;2.20;1.00;;;;;;5116832;27;20240;-77
2024/01/20 08:50:02;;;;;;;14.85;12.05;;;2.20;1.00;;;;;;5113118;27;20703;-74
2024/01/20 08:52:29;;;;;;;13.50;10.57;;;2.30;1.00;;;;;;5115157;27;20956;-76
2024/01/20 08:54:57;;;;;;;17.65;13.40;;;2.30;1.00;;;;;;5116771;28;20240;-77
2024/01/20 08:57:25;;;;;;;14.77;11.25;;;2.30;1.00;;;;;;5115233;28;21073;-77
2024/01/20 08:59:53;;;;;;;16.63;11.40;;;2.30;1.00;;;;;;5113004;27;20258;-78
2024/01/20 09:02:21;;;;;;;16.30;12.13;;;2.30;1.00;;;;;;5115107;27;20290;-77
2024/01/20 09:04:48;;;;;;;14.40;11.05;;;2.30;1.00;;;;;;5115873;27;20300;-76
2024/01/20 09:07:16;;;;;;;14.63;11.50;;;2.40;1.00;;;;;;5110838;28;20239;-78
2024/01/20 09:09:43;;;;;;;13.88;12.05;;;2.40;1.00;;;;;;5103419;28;20243;-77
2024/01/20 09:12:13;;;;;;;16.50;11.75;;;2.50;1.00;;;;;;5101041;28;20317;-76
2024/01/20 09:14:40;;;;;;;15.55;12.10;;;2.50;1.00;;;;;;5095157;28;20329;-78
2024/01/20 09:17:08;;;;;;;15.48;11.80;;;2.60;1.00;;;;;;5112614;28;20247;-77
2024/01/20 09:19:35;;;;;;;11.77;10.60;;;2.70;1.00;;;;;;5112334;28;20326;-78
2024/01/20 09:22:03;;;;;;;14.63;10.10;;;2.80;1.00;;;;;;5110550;28;21103;-75
2024/01/20 09:24:30;;;;;;;13.15;11.27;;;2.70;1.00;;;;;;5112044;28;21047;-77
2024/01/20 09:26:57;;;;;;;13.07;11.65;;;2.70;1.00;;;;;;5110312;27;20240;-76
2024/01/20 09:29:24;;;;;;;12.98;11.48;;;2.60;1.00;;;;;;5111601;27;20330;-77
2024/01/20 09:31:51;;;;;;;12.63;10.65;;;2.60;1.00;;;;;;5113049;28;20743;-75
2024/01/20 09:34:20;;;;;;;13.63;10.88;;;2.60;1.00;;;;;;5107377;27;20232;-76
2024/01/20 09:36:46;;;;;;;15.27;11.13;;;2.60;1.00;;;;;;5109559;28;20625;-79
2024/01/20 09:39:13;;;;;;;15.80;11.05;;;2.60;1.00;;;;;;5113830;27;22660;-78
2024/01/20 09:41:44;;;;;;;12.38;11.07;;;2.60;1.00;;;;;;5111136;28;20262;-80
2024/01/20 09:44:12;;;;;;;12.52;11.23;;;2.70;1.00;;;;;;5111217;28;20239;-77
2024/01/20 09:46:40;;;;;;;12.30;11.10;;;2.70;1.00;;;;;;5114955;27;20247;-78
2024/01/20 09:49:08;;;;;;;13.65;11.20;;;2.70;1.00;;;;;;5112971;28;20272;-78
2024/01/20 09:51:38;;;;;;;16.17;10.85;;;2.70;1.00;;;;;;5112933;28;20284;-76
2024/01/20 09:54:06;;;;;;;13.38;10.32;;;2.70;1.00;;;;;;5111522;27;20235;-79
2024/01/20 09:56:33;;;;;;;15.10;10.93;;;2.70;1.00;;;;;;5115486;28;20719;-78
2024/01/20 09:59:01;;;;;;;14.15;11.68;;;2.70;1.00;;;;;;5113199;27;20995;-76
2024/01/20 10:01:29;;;;;;;15.45;11.80;;;2.70;1.00;;;;;;5112892;27;20322;-76
2024/01/20 10:03:59;;;;;;;12.23;10.93;;;2.70;1.00;;;;;;5115749;28;20624;-77
2024/01/20 10:06:26;;;;;;;16.65;11.48;;;2.80;1.00;;;;;;5082511;28;20232;-78
2024/01/20 10:08:55;;;;;;;14.85;11.10;;;2.80;1.00;;;;;;5084899;28;20259;-77
2024/01/20 10:11:22;;;;;;;12.95;11.07;;;3.00;1.00;;;;;;5110200;28;20383;-75
2024/01/20 10:13:49;;;;;;;14.07;12.00;;;3.10;1.00;;;;;;5111725;28;20236;-78
2024/01/20 10:16:17;;;;;;;14.38;10.85;;;3.20;1.00;;;;;;5114316;28;20266;-77
2024/01/20 10:18:44;;;;;;;12.30;11.00;;;3.30;1.00;;;;;;5112381;28;20235;-76
2024/01/20 10:21:11;;;;;;;14.38;11.15;;;3.40;1.00;;;;;;5112478;28;20715;-79
2024/01/20 10:23:39;;;;;;;12.35;9.48;;;3.60;1.00;;;;;;5110260;27;20281;-78
2024/01/20 10:26:09;;;;;;;13.85;10.02;;;3.60;1.00;;;;;;5106225;28;20259;-75
2024/01/20 10:28:36;;;;;;;11.52;10.05;;;3.70;1.00;;;;;;5108389;28;20235;-77
2024/01/20 10:31:08;;;;;;;15.13;10.43;;;3.80;1.00;;;;;;5109640;27;20365;-77
2024/01/20 10:33:35;;;;;;;14.27;11.32;;;3.90;1.00;;;;;;5112419;27;20239;-75
2024/01/20 10:36:05;;;;;;;12.55;10.13;;;4.00;1.00;;;;;;5111781;27;20322;-75
2024/01/20 10:38:38;;;;;;;12.80;10.60;;;3.80;1.00;;;;;;5111138;28;20265;-76
2024/01/20 10:41:08;;;;;;;13.25;9.52;;;3.80;1.00;;;;;;5108903;27;20277;-77
2024/01/20 10:43:39;;;;;;;13.70;10.45;;;3.90;1.00;;;;;;5112240;28;20215;-79
2024/01/20 10:46:24;;;;;;;13.35;10.60;;;3.90;1.00;;;;;;5109611;27;20337;-80
2024/01/20 10:48:54;;;;;;;13.80;10.10;;;3.80;1.00;;;;;;5107799;28;20235;-77
2024/01/20 10:51:26;;;;;;;12.82;10.50;;;3.80;1.00;;;;;;5109253;28;20266;-79
2024/01/20 10:53:55;;;;;;;11.93;9.93;;;3.90;1.00;;;;;;5113839;27;20234;-76
2024/01/20 10:56:24;;;;;;;11.43;9.40;;;3.90;1.00;;;;;;5109766;28;20251;-79
2024/01/20 10:58:57;;;;;;;12.15;9.88;;;3.80;1.00;;;;;;5111249;27;20853;-77
2024/01/20 11:01:25;;;;;;;12.95;10.77;;;3.80;1.00;;;;;;5107289;28;20241;-79
2024/01/20 11:03:52;;;;;;;16.60;11.25;;;3.80;1.00;;;;;;5107354;28;20264;-76
2024/01/20 11:06:20;;;;;;;13.82;10.25;;;3.90;1.00;;;;;;5107734;27;20330;-78
2024/01/20 11:08:51;;;;;;;12.80;11.43;;;4.00;1.00;;;;;;5108514;28;20235;-75
2024/01/20 11:11:19;;;;;;;14.20;10.55;;;4.10;1.00;;;;;;5108796;28;20309;-77
2024/01/20 11:13:48;;;;;;;13.23;9.90;;;4.10;1.00;;;;;;5108922;28;20237;-76
2024/01/20 11:16:20;;;;;;;14.55;11.43;;;4.00;1.00;;;;;;5111407;28;20309;-78
2024/01/20 11:18:47;;;;;;;12.85;10.93;;;3.90;1.00;;;;;;5111089;28;20243;-78
2024/01/20 11:21:16;;;;;;;12.25;10.35;;;3.90;1.00;;;;;;5111148;27;20359;-76
2024/01/20 11:23:46;;;;;;;10.68;9.38;;;3.90;1.00;;;;;;5109837;28;20228;-78
2024/01/20 11:26:14;;;;;;;12.63;10.23;;;3.90;1.00;;;;;;5108499;28;20270;-78
2024/01/20 11:28:44;;;;;;;11.40;10.20;;;3.80;1.00;;;;;;5111639;28;20722;-76
2024/01/20 11:31:21;;;;;;;14.75;10.70;;;3.90;1.00;;;;;;5108816;28;20247;-77
2024/01/20 11:33:48;;;;;;;13.43;9.98;;;4.00;1.00;;;;;;5111595;27;20234;-78
2024/01/20 11:36:16;;;;;;;13.98;10.18;;;3.90;1.00;;;;;;5109416;28;20331;-76
2024/01/20 11:38:44;;;;;;;18.05;11.77;;;4.00;1.00;;;;;;5110775;28;20241;-76
2024/01/20 11:41:12;;;;;;;13.10;9.90;;;4.20;1.00;;;;;;5112178;28;20974;-77
2024/01/20 11:43:45;;;;;;;15.40;10.27;;;4.50;1.00;;;;;;5110716;28;20274;-76
2024/01/20 11:46:12;;;;;;;15.68;10.30;;;4.90;1.00;;;;;;5109731;28;20252;-76
2024/01/20 11:48:42;;;;;;;14.77;10.65;;;5.30;1.00;;;;;;5111160;28;20240;-76
2024/01/20 11:51:09;;;;;;;11.43;10.32;;;5.80;1.00;;;;;;5112766;27;20290;-77
2024/01/20 11:53:36;;;;;;;13.95;10.60;;;6.00;1.00;;;;;;5113158;27;20340;-78
2024/01/20 11:56:03;;;;;;;13.10;10.73;;;6.10;1.00;;;;;;5106225;27;21225;-77
2024/01/20 11:58:31;;;;;;;13.27;9.48;;;6.10;1.00;;;;;;5109705;27;20263;-77
2024/01/20 12:00:59;;;;;;;14.50;9.82;;;6.10;1.00;;;;;;5111949;27;20236;-78
2024/01/20 12:03:27;;;;;;;14.30;11.63;;;5.80;1.00;;;;;;5110186;28;20232;-73
2024/01/20 12:05:56;;;;;;;11.43;9.90;;;5.70;1.00;;;;;;5107040;27;20244;-73
2024/01/20 12:08:23;;;;;;;12.48;10.85;;;6.00;1.00;;;;;;5109439;27;20358;-72
2024/01/20 12:10:52;;;;;;;14.10;10.97;;;7.10;1.00;;;;;;5105265;27;20243;-74
2024/01/20 12:13:21;;;;;;;12.30;10.00;;;8.10;1.00;;;;;;5109490;27;20499;-75
2024/01/20 12:15:49;;;;;;;12.03;10.13;;;8.70;1.00;;;;;;5109582;27;20492;-74
2024/01/20 12:18:18;;;;;;;14.70;9.40;;;9.50;1.00;;;;;;5089002;27;20652;-74
2024/01/20 12:20:45;;;;;;;15.03;11.83;;;9.80;1.00;;;;;;5107622;28;21097;-74
2024/01/20 12:23:18;;;;;;;12.83;9.80;;;10.30;1.00;;;;;;5114338;27;21076;-73
2024/01/20 12:25:44;;;;;;;13.60;9.83;;;10.60;1.00;;;;;;5114918;27;20493;-75
2024/01/20 12:28:12;;;;;;;13.60;10.30;;;10.70;1.00;;;;;;5110367;28;20493;-72
2024/01/20 12:30:39;;;;;;;11.90;9.13;;;10.40;1.00;;;;;;5109918;27;20537;-74
2024/01/20 12:33:06;;;;;;;13.60;10.13;;;9.90;1.00;;;;;;5112588;27;20449;-71
2024/01/20 12:35:33;;;;;;;13.00;9.67;;;10.30;1.00;;;;;;5114152;27;20480;-76
2024/01/20 12:38:00;;;;;;;10.70;8.50;;;10.90;1.00;;;;;;5108694;27;20942;-74
2024/01/20 12:40:33;;;;;;;10.10;8.40;;;11.20;1.00;;;;;;5110462;27;20989;-73
2024/01/20 12:43:01;;;;;;;11.23;8.97;;;11.60;1.00;;;;;;5113070;27;20450;-76
2024/01/20 12:45:28;;;;;;;14.03;9.77;;;11.90;1.00;;;;;;5110105;27;20542;-78
2024/01/20 12:47:55;;;;;;;10.10;8.27;;;11.80;1.00;;;;;;5096117;27;20477;-79
2024/01/20 12:50:22;;;;;;;8.90;8.07;;;11.50;1.00;;;;;;5101563;28;20450;-78
2024/01/20 12:52:53;;;;;;;9.53;8.40;;;11.20;1.00;;;;;;5113759;27;20452;-77